KDIJ

Driggs-Reed Memorial Airport

Driggs, Idaho, USA
KDIJ 211720Z 2118/2218 15007KT P6SM VCSH FEW040 BKN090 FM211900 23009KT P6SM VCTS FEW050 BKN090CB FM220200 17011KT P6SM FEW080 SCT120 FM220600 13007KT P6SM BKN150 AMD LTD TO CLD VIS AND WIND
Issued Valid From Valid To
Jul-21 @ 17:20 UTC
(6 hours ago)
Jul-21 @ 18:00 UTC
(5 hours ago)
Jul-22 @ 18:00 UTC
(in 19 hours)
Expired Click to View Jul-21 @ 18:00 to Jul-21 @ 19:00
KDIJ 211720Z 2118/2218 15007KT P6SM VCSH FEW040 BKN090
Wind Visibility Clouds
150° at 7 knots Greater than 6 miles
  • Few at 4,000' AGL
  • Broken at 9,000' AGL
From Jul-21 @ 19:00 to Jul-22 @ 02:00
FM211900 23009KT P6SM VCTS FEW050 BKN090CB
Wind Visibility Clouds Conditions
230° at 9 knots Greater than 6 miles
  • Few at 5,000' AGL
  • Broken at 9,000' AGL
  • Area Thunderstorm
From Jul-22 @ 02:00 to Jul-22 @ 06:00
FM220200 17011KT P6SM FEW080 SCT120
Wind Visibility Clouds
170° at 11 knots Greater than 6 miles
  • Few at 8,000' AGL
  • Scattered at 12,000' AGL
From Jul-22 @ 06:00 to Jul-22 @ 18:00
FM220600 13007KT P6SM BKN150 AMD LTD TO CLD VIS AND WIND
Wind Visibility Clouds
130° at 7 knots Greater than 6 miles
  • Broken at 15,000' AGL
KDIJ 211720Z 2118/2218 15007KT P6SM VCSH FEW040 BKN090 FM211900 23009KT P6SM VCTS FEW050 BKN090CB FM220200 17011KT P6SM FEW080 SCT120 FM220600 13007KT P6SM BKN150 AMD LTD TO CLD VIS AND WIND
Issued Jul-21 @ 17:20 UTC
(6 hours ago)
Valid From Jul-21 @ 18:00 UTC
(5 hours ago)
Valid To Jul-22 @ 18:00 UTC
(in 19 hours)
Jul-21 @ 18:00 - Jul-21 @ 19:00
Wind Visibility
150° at 7 knots Greater than 6 miles
Clouds
  • Few at 4,000' AGL
  • Broken at 9,000' AGL
From Jul-21 @ 19:00 - Jul-22 @ 02:00
Wind Visibility
230° at 9 knots Greater than 6 miles
Clouds
  • Few at 5,000' AGL
  • Broken at 9,000' AGL
Conditions
  • Area Thunderstorm
From Jul-22 @ 02:00 - Jul-22 @ 06:00
Wind Visibility
170° at 11 knots Greater than 6 miles
Clouds
  • Few at 8,000' AGL
  • Scattered at 12,000' AGL
From Jul-22 @ 06:00 - Jul-22 @ 18:00
Wind Visibility
130° at 7 knots Greater than 6 miles
Clouds
  • Broken at 15,000' AGL